Great Falls International Airport
KGTF : now visible

Airfield :











YOU CAN JOIN US ON...

 
LOGIN :

Register | Disclaimer

   EN    FR    IT 

 









Legend :    VFR   Marginal VFR   IFR   Intensive IFR   Very Intensive IFR
Visi :
Ceiling :
>= 8 km
>= 3000ft
5 to 8 km
1000 to 3000 ft
1500m to 5 km
500 to 1000 ft
800 to 1500m
200 to 500 ft
< 800m
< 200 ft
Symbols :   Thunderstorms  Fog  Heavy snow  Heavy precipitations  Wind > 20 kt






- Airport Elevation : 3680 ft
- IATA code : GTF


KGTF - Great Falls International

CURRENT METAR :
  • 240453Z 19009KT 10SM CLR M08/M12 A2976 RMK AO2 SLP144 T10781122 $

EXPIRED METARs :
  • 240353Z 20009KT 10SM CLR M08/M12 A2979 RMK AO2 SLP153 T10781122 $
  • 240253Z 18008KT 10SM CLR M07/M12 A2981 RMK AO2 SLP161 T10721122 58011 $

TAF KGTF
Valid from the 24 at 00:00 until the 25 at 00:00 UTC


232341Z 2400/2424 VRB05KT P6SM FEW150 SCT250
FM241100 22008KT P6SM FEW060 SCT090
FM242000 24012KT P6SM FEW090 SCT150
KZLC FIR / North America



MET'MAP, your aeronautical weather chart ! - Copyright ORBIFLY December 2007 - Disclaimer

ORBIFLY MET'MAP TEAM :

Programming & Development : Alexandra Zaïnal
Concept & original design : Baudouin d'Aumeries
Assistance for programming : Marc-Olivier Méhu
Technical & hardware support : Manuel Goepfert

Contact : metmap@orbifly.com




SOURCES & CREDITS :

   NOAA       Earth
Advisory